Terminal Aerodrome Forecast
Issued by NWS Charleston, WV

Current Version | Previous Version | Text Only | Print | Product List | Glossary Off
Versions: 1 2 3 4 5 6 7 8 9 10 11 12 13 14 15 16 17 18 19 20 21

000
FTUS41 KRLX 230800 AAA
TAFHTS
TAF AMD
KHTS 230857Z 2309/2406 00000KT P6SM OVC100
     FM232000 15009G17KT 6SM BR OVC050
     FM232100 15010G18KT 4SM -RA BR OVC050
     FM232200 15011G19KT 3SM -RA BR OVC050=

USA.gov is the U.S. government's official web portal to all federal, state and local government web resources and services.